Sky Queen — 3EHV9 — position and weather

sailwx.info

Track history (hours):
 
Tides and Currents Weather Stations Pressure Air Temp Water Temp Dewpoint Dewpoint Depression Visibility Wind Speed Wind Dir Waves Ship Positions

Sky Queen

Last reported at 2017-Sep-12 06:15 UTC. Time now 2017-Nov-18 08:54 UTC.
Position N 37°39' E 122°02'.
Warning: this ship's position is months out of date.

Length 89 m; draft 4.8 m.

Type: Cargo ship. MMSI: 372259000.

Date/timePositionNaut miles runAvg speedWind from/ knotsBaromVisibWave heightAir tempDewpointWater temp
2017-Sep-12 06:15N 37°39' E 122°02'2 9.2
2017-Sep-12 05:59N 37°38' E 121°59'4 9.1
2017-Sep-12 05:30N 37°38' E 121°53'4 8.8
2017-Sep-12 05:00N 37°39' E 121°48'5 8.9
2017-Sep-12 04:23N 37°39' E 121°41'4 9.0
2017-Sep-12 04:00N 37°39' E 121°36'4 8.6
2017-Sep-12 03:30N 37°39' E 121°31'4 7.7
2017-Sep-12 03:00N 37°36' E 121°27'4 7.8
2017-Sep-12 02:30N 37°34' E 121°23'0 0.9
2017-Sep-12 01:59N 37°34' E 121°23'0 0.0
2017-Sep-12 01:29N 37°34' E 121°23'0 0.0
2017-Sep-12 00:56N 37°34' E 121°23'0 0.0
2017-Sep-12 00:29N 37°34' E 121°23'0 0.0
2017-Sep-11 23:56N 37°34' E 121°23'0 0.0
2017-Sep-11 23:29N 37°34' E 121°23'0 0.0
2017-Sep-11 22:59N 37°34' E 121°23'0 0.0
2017-Sep-11 22:29N 37°34' E 121°23'0 0.0
2017-Sep-11 21:59N 37°34' E 121°23'0 0.0
2017-Sep-11 21:29N 37°34' E 121°23'0 0.0
2017-Sep-11 20:56N 37°34' E 121°23'0 0.0
2017-Sep-11 20:29N 37°34' E 121°23'0 0.0
2017-Sep-11 19:56N 37°34' E 121°23'0 0.0
2017-Sep-11 19:29N 37°34' E 121°23'0 0.0
2017-Sep-11 18:57N 37°34' E 121°23'0 0.0
2017-Sep-11 18:29N 37°34' E 121°23'0 0.0
2017-Sep-11 17:59N 37°34' E 121°23'0 0.0
2017-Sep-11 17:29N 37°34' E 121°23'0 0.0
2017-Sep-11 16:53N 37°34' E 121°23'0 0.0
2017-Sep-11 16:29N 37°34' E 121°23'0 0.0
2017-Sep-11 15:59N 37°34' E 121°23'0 0.0
2017-Sep-11 15:29N 37°34' E 121°23'0 0.0
2017-Sep-11 14:59N 37°34' E 121°23'0 0.0
2017-Sep-11 14:29N 37°34' E 121°23'0 0.0
2017-Sep-11 13:59N 37°34' E 121°23'0 0.0
2017-Sep-11 13:29N 37°34' E 121°23'0 0.0
2017-Sep-11 12:59N 37°34' E 121°23'0 0.0
2017-Sep-11 12:29N 37°34' E 121°23'0 0.0
2017-Sep-11 11:59N 37°34' E 121°23'0 0.0
2017-Sep-11 11:29N 37°34' E 121°23'0 0.0
2017-Sep-11 10:59N 37°34' E 121°23'0 0.0
2017-Sep-11 10:29N 37°34' E 121°23'0 0.0
2017-Sep-11 09:59N 37°34' E 121°23'0 0.0
2017-Sep-11 09:26N 37°34' E 121°23'0 0.0
2017-Sep-11 08:57N 37°34' E 121°23'0 0.0
2017-Sep-11 08:29N 37°34' E 121°23'0 0.0
2017-Sep-11 07:59N 37°34' E 121°23'0 0.0
2017-Sep-11 07:29N 37°34' E 121°23'0 0.0
2017-Sep-11 06:56N 37°34' E 121°23'0 0.0
2017-Sep-11 06:29N 37°34' E 121°23'0 0.0
2017-Sep-11 05:59N 37°34' E 121°23'0 0.0
2017-Sep-11 05:29N 37°34' E 121°23'0 0.0
2017-Sep-11 04:59N 37°34' E 121°23'0 0.0
2017-Sep-11 04:29N 37°34' E 121°23'0 0.0
2017-Sep-11 03:59N 37°34' E 121°23'0 0.0
2017-Sep-11 03:29N 37°34' E 121°23'0 0.0
2017-Sep-11 02:57N 37°34' E 121°23'0 0.0
2017-Sep-11 02:29N 37°34' E 121°23'0 0.0
2017-Sep-11 01:56N 37°34' E 121°23'0 0.0
2017-Sep-11 01:29N 37°34' E 121°23'0 0.0
2017-Sep-11 00:57N 37°34' E 121°23'0 0.0
2017-Sep-11 00:26N 37°34' E 121°23'0 0.0
2017-Sep-10 23:57N 37°34' E 121°23'0 0.0
2017-Sep-10 23:27N 37°34' E 121°23'0 0.0
2017-Sep-10 22:59N 37°34' E 121°23'0 0.0
2017-Sep-10 22:29N 37°34' E 121°23'0 0.0
2017-Sep-10 21:56N 37°34' E 121°23'0 0.0
2017-Sep-10 21:29N 37°34' E 121°23'0 0.0
2017-Sep-10 20:59N 37°34' E 121°23'0 0.0
2017-Sep-10 20:29N 37°34' E 121°23'0 0.0
2017-Sep-10 19:57N 37°34' E 121°23'0 0.0
2017-Sep-10 19:29N 37°34' E 121°23'0 0.0
2017-Sep-10 18:59N 37°34' E 121°23'0 0.0
2017-Sep-10 18:29N 37°34' E 121°23'0 0.0
2017-Sep-10 17:59N 37°34' E 121°23'0 0.0
2017-Sep-10 17:26N 37°34' E 121°23'0 0.0
2017-Sep-10 16:59N 37°34' E 121°23'0 0.0
2017-Sep-10 16:29N 37°34' E 121°23'0 0.0
2017-Sep-10 15:53N 37°34' E 121°23'0 0.0
2017-Sep-10 15:27N 37°34' E 121°23'0 0.0
2017-Sep-10 14:59N 37°34' E 121°23'0 0.0
2017-Sep-10 13:59N 37°34' E 121°23'0 0.0
2017-Sep-10 13:29N 37°34' E 121°23'0 0.0
2017-Sep-10 12:59N 37°34' E 121°23'0 0.0
2017-Sep-10 12:27N 37°34' E 121°23'0 0.0
2017-Sep-10 11:59N 37°34' E 121°23'0 0.0
2017-Sep-10 11:15N 37°34' E 121°23'0 0.0
2017-Sep-10 10:59N 37°34' E 121°23'0 0.0
2017-Sep-10 10:29N 37°34' E 121°23'0 0.0
2017-Sep-10 09:59N 37°34' E 121°23'0 0.0
2017-Sep-10 09:29N 37°34' E 121°23'0 0.0
2017-Sep-10 08:59N 37°34' E 121°23'0 0.0
2017-Sep-10 08:27N 37°34' E 121°23'0 0.0
2017-Sep-10 07:59N 37°34' E 121°23'0 0.0
2017-Sep-10 07:29N 37°34' E 121°23'0 0.0
2017-Sep-10 06:57N 37°34' E 121°23'0 0.0
2017-Sep-10 06:29N 37°34' E 121°23'0 0.0
2017-Sep-10 05:56N 37°34' E 121°23'0 0.0
2017-Sep-10 05:29N 37°34' E 121°23'0 0.0
2017-Sep-10 04:59N 37°34' E 121°23'0 0.0
2017-Sep-10 04:29N 37°34' E 121°23'0 0.0
2017-Sep-10 03:59N 37°34' E 121°23'0 0.0
2017-Sep-10 03:29N 37°34' E 121°23'0 0.0
2017-Sep-10 02:59N 37°34' E 121°23'0 0.0
2017-Sep-10 02:29N 37°34' E 121°23'0 0.0
2017-Sep-10 01:56N 37°34' E 121°23'0 0.0
2017-Sep-10 01:29N 37°34' E 121°23'0 0.0
2017-Sep-10 00:59N 37°34' E 121°23'0 0.0
2017-Sep-10 00:29N 37°34' E 121°23'0 0.1
2017-Sep-09 23:57N 37°34' E 121°23'1 3.2
2017-Sep-09 23:30N 37°34' E 121°25'4 8.4
2017-Sep-09 23:00N 37°37' E 121°28'3 5.3
2017-Sep-09 22:30N 37°40' E 121°30'0 0.5
2017-Sep-09 22:00N 37°40' E 121°30'0 0.1
2017-Sep-09 21:27N 37°40' E 121°30'0 0.0
2017-Sep-09 21:00N 37°40' E 121°30'0 0.0
2017-Sep-09 20:30N 37°40' E 121°30'0 0.1
2017-Sep-09 20:00N 37°40' E 121°30'0 0.0
2017-Sep-09 19:30N 37°40' E 121°30'0 0.0
2017-Sep-09 19:00N 37°40' E 121°30'0 0.0
2017-Sep-09 18:24N 37°40' E 121°30'0 0.0
2017-Sep-09 18:00N 37°40' E 121°30'0 0.1
2017-Sep-09 17:30N 37°40' E 121°30'0 0.0
2017-Sep-09 16:51N 37°40' E 121°30'0 0.0
2017-Sep-09 16:27N 37°40' E 121°30'0 0.0
2017-Sep-09 16:00N 37°40' E 121°30'0 0.0
2017-Sep-09 15:30N 37°40' E 121°30'0 0.1
2017-Sep-09 15:00N 37°40' E 121°30'3 5.8
2017-Sep-09 14:30N 37°40' E 121°33'5 9.4
2017-Sep-09 14:00N 37°40' E 121°39'5 9.4
2017-Sep-09 13:30N 37°40' E 121°45'5 9.8
2017-Sep-09 12:59N 37°39' E 121°52'510.1
2017-Sep-09 12:28N 37°39' E 121°58'  
Track history (hours):
 
Tides and Currents Weather Stations Pressure Air Temp Water Temp Dewpoint Dewpoint Depression Visibility Wind Speed Wind Dir Waves Ship Positions

Sky Queen

Last reported at 2017-Sep-12 06:15 UTC. Time now 2017-Nov-18 08:54 UTC.
Position N 37°39' E 122°02'.
Warning: this ship's position is months out of date.

Length 89 m; draft 4.8 m.

Type: Cargo ship. MMSI: 372259000.

Date/timePositionNaut miles runAvg speedWind from/ knotsBaromVisibWave heightAir tempDewpointWater temp
2017-Sep-12 06:15N 37°39' E 122°02'2 9.2
2017-Sep-12 05:59N 37°38' E 121°59'4 9.1
2017-Sep-12 05:30N 37°38' E 121°53'4 8.8
2017-Sep-12 05:00N 37°39' E 121°48'5 8.9
2017-Sep-12 04:23N 37°39' E 121°41'4 9.0
2017-Sep-12 04:00N 37°39' E 121°36'4 8.6
2017-Sep-12 03:30N 37°39' E 121°31'4 7.7
2017-Sep-12 03:00N 37°36' E 121°27'4 7.8
2017-Sep-12 02:30N 37°34' E 121°23'0 0.9
2017-Sep-12 01:59N 37°34' E 121°23'0 0.0
2017-Sep-12 01:29N 37°34' E 121°23'0 0.0
2017-Sep-12 00:56N 37°34' E 121°23'0 0.0
2017-Sep-12 00:29N 37°34' E 121°23'0 0.0
2017-Sep-11 23:56N 37°34' E 121°23'0 0.0
2017-Sep-11 23:29N 37°34' E 121°23'0 0.0
2017-Sep-11 22:59N 37°34' E 121°23'0 0.0
2017-Sep-11 22:29N 37°34' E 121°23'0 0.0
2017-Sep-11 21:59N 37°34' E 121°23'0 0.0
2017-Sep-11 21:29N 37°34' E 121°23'0 0.0
2017-Sep-11 20:56N 37°34' E 121°23'0 0.0
2017-Sep-11 20:29N 37°34' E 121°23'0 0.0
2017-Sep-11 19:56N 37°34' E 121°23'0 0.0
2017-Sep-11 19:29N 37°34' E 121°23'0 0.0
2017-Sep-11 18:57N 37°34' E 121°23'0 0.0
2017-Sep-11 18:29N 37°34' E 121°23'0 0.0
2017-Sep-11 17:59N 37°34' E 121°23'0 0.0
2017-Sep-11 17:29N 37°34' E 121°23'0 0.0
2017-Sep-11 16:53N 37°34' E 121°23'0 0.0
2017-Sep-11 16:29N 37°34' E 121°23'0 0.0
2017-Sep-11 15:59N 37°34' E 121°23'0 0.0
2017-Sep-11 15:29N 37°34' E 121°23'0 0.0
2017-Sep-11 14:59N 37°34' E 121°23'0 0.0
2017-Sep-11 14:29N 37°34' E 121°23'0 0.0
2017-Sep-11 13:59N 37°34' E 121°23'0 0.0
2017-Sep-11 13:29N 37°34' E 121°23'0 0.0
2017-Sep-11 12:59N 37°34' E 121°23'0 0.0
2017-Sep-11 12:29N 37°34' E 121°23'0 0.0
2017-Sep-11 11:59N 37°34' E 121°23'0 0.0
2017-Sep-11 11:29N 37°34' E 121°23'0 0.0
2017-Sep-11 10:59N 37°34' E 121°23'0 0.0
2017-Sep-11 10:29N 37°34' E 121°23'0 0.0
2017-Sep-11 09:59N 37°34' E 121°23'0 0.0
2017-Sep-11 09:26N 37°34' E 121°23'0 0.0
2017-Sep-11 08:57N 37°34' E 121°23'0 0.0
2017-Sep-11 08:29N 37°34' E 121°23'0 0.0
2017-Sep-11 07:59N 37°34' E 121°23'0 0.0
2017-Sep-11 07:29N 37°34' E 121°23'0 0.0
2017-Sep-11 06:56N 37°34' E 121°23'0 0.0
2017-Sep-11 06:29N 37°34' E 121°23'0 0.0
2017-Sep-11 05:59N 37°34' E 121°23'0 0.0
2017-Sep-11 05:29N 37°34' E 121°23'0 0.0
2017-Sep-11 04:59N 37°34' E 121°23'0 0.0
2017-Sep-11 04:29N 37°34' E 121°23'0 0.0
2017-Sep-11 03:59N 37°34' E 121°23'0 0.0
2017-Sep-11 03:29N 37°34' E 121°23'0 0.0
2017-Sep-11 02:57N 37°34' E 121°23'0 0.0
2017-Sep-11 02:29N 37°34' E 121°23'0 0.0
2017-Sep-11 01:56N 37°34' E 121°23'0 0.0
2017-Sep-11 01:29N 37°34' E 121°23'0 0.0
2017-Sep-11 00:57N 37°34' E 121°23'0 0.0
2017-Sep-11 00:26N 37°34' E 121°23'0 0.0
2017-Sep-10 23:57N 37°34' E 121°23'0 0.0
2017-Sep-10 23:27N 37°34' E 121°23'0 0.0
2017-Sep-10 22:59N 37°34' E 121°23'0 0.0
2017-Sep-10 22:29N 37°34' E 121°23'0 0.0
2017-Sep-10 21:56N 37°34' E 121°23'0 0.0
2017-Sep-10 21:29N 37°34' E 121°23'0 0.0
2017-Sep-10 20:59N 37°34' E 121°23'0 0.0
2017-Sep-10 20:29N 37°34' E 121°23'0 0.0
2017-Sep-10 19:57N 37°34' E 121°23'0 0.0
2017-Sep-10 19:29N 37°34' E 121°23'0 0.0
2017-Sep-10 18:59N 37°34' E 121°23'0 0.0
2017-Sep-10 18:29N 37°34' E 121°23'0 0.0
2017-Sep-10 17:59N 37°34' E 121°23'0 0.0
2017-Sep-10 17:26N 37°34' E 121°23'0 0.0
2017-Sep-10 16:59N 37°34' E 121°23'0 0.0
2017-Sep-10 16:29N 37°34' E 121°23'0 0.0
2017-Sep-10 15:53N 37°34' E 121°23'0 0.0
2017-Sep-10 15:27N 37°34' E 121°23'0 0.0
2017-Sep-10 14:59N 37°34' E 121°23'0 0.0
2017-Sep-10 13:59N 37°34' E 121°23'0 0.0
2017-Sep-10 13:29N 37°34' E 121°23'0 0.0
2017-Sep-10 12:59N 37°34' E 121°23'0 0.0
2017-Sep-10 12:27N 37°34' E 121°23'0 0.0
2017-Sep-10 11:59N 37°34' E 121°23'0 0.0
2017-Sep-10 11:15N 37°34' E 121°23'0 0.0
2017-Sep-10 10:59N 37°34' E 121°23'0 0.0
2017-Sep-10 10:29N 37°34' E 121°23'0 0.0
2017-Sep-10 09:59N 37°34' E 121°23'0 0.0
2017-Sep-10 09:29N 37°34' E 121°23'0 0.0
2017-Sep-10 08:59N 37°34' E 121°23'0 0.0
2017-Sep-10 08:27N 37°34' E 121°23'0 0.0
2017-Sep-10 07:59N 37°34' E 121°23'0 0.0
2017-Sep-10 07:29N 37°34' E 121°23'0 0.0
2017-Sep-10 06:57N 37°34' E 121°23'0 0.0
2017-Sep-10 06:29N 37°34' E 121°23'0 0.0
2017-Sep-10 05:56N 37°34' E 121°23'0 0.0
2017-Sep-10 05:29N 37°34' E 121°23'0 0.0
2017-Sep-10 04:59N 37°34' E 121°23'0 0.0
2017-Sep-10 04:29N 37°34' E 121°23'0 0.0
2017-Sep-10 03:59N 37°34' E 121°23'0 0.0
2017-Sep-10 03:29N 37°34' E 121°23'0 0.0
2017-Sep-10 02:59N 37°34' E 121°23'0 0.0
2017-Sep-10 02:29N 37°34' E 121°23'0 0.0
2017-Sep-10 01:56N 37°34' E 121°23'0 0.0
2017-Sep-10 01:29N 37°34' E 121°23'0 0.0
2017-Sep-10 00:59N 37°34' E 121°23'0 0.0
2017-Sep-10 00:29N 37°34' E 121°23'0 0.1
2017-Sep-09 23:57N 37°34' E 121°23'1 3.2
2017-Sep-09 23:30N 37°34' E 121°25'4 8.4
2017-Sep-09 23:00N 37°37' E 121°28'3 5.3
2017-Sep-09 22:30N 37°40' E 121°30'0 0.5
2017-Sep-09 22:00N 37°40' E 121°30'0 0.1
2017-Sep-09 21:27N 37°40' E 121°30'0 0.0
2017-Sep-09 21:00N 37°40' E 121°30'0 0.0
2017-Sep-09 20:30N 37°40' E 121°30'0 0.1
2017-Sep-09 20:00N 37°40' E 121°30'0 0.0
2017-Sep-09 19:30N 37°40' E 121°30'0 0.0
2017-Sep-09 19:00N 37°40' E 121°30'0 0.0
2017-Sep-09 18:24N 37°40' E 121°30'0 0.0
2017-Sep-09 18:00N 37°40' E 121°30'0 0.1
2017-Sep-09 17:30N 37°40' E 121°30'0 0.0
2017-Sep-09 16:51N 37°40' E 121°30'0 0.0
2017-Sep-09 16:27N 37°40' E 121°30'0 0.0
2017-Sep-09 16:00N 37°40' E 121°30'0 0.0
2017-Sep-09 15:30N 37°40' E 121°30'0 0.1
2017-Sep-09 15:00N 37°40' E 121°30'3 5.8
2017-Sep-09 14:30N 37°40' E 121°33'5 9.4
2017-Sep-09 14:00N 37°40' E 121°39'5 9.4
2017-Sep-09 13:30N 37°40' E 121°45'5 9.8
2017-Sep-09 12:59N 37°39' E 121°52'510.1
2017-Sep-09 12:28N 37°39' E 121°58'  

Dump ship's entire track history